This is the latest recevied weather packets stored in our database for station/object N8WJW. If no packets are shown the sender has not sent any weather packets the latest 10 day(s).
| Time | Temp. | Humidity | Pressure | Rain* | Wind** | Luminosity | Snow |
|---|---|---|---|---|---|---|---|
| 1777242388 | 18.33° C | 64% | 1021.2 hPa | 0 mm | - | 172 W/m² | - |
| 1777242085 | 18.33° C | 65% | 1021.1 hPa | 0 mm | - | 193 W/m² | - |
| 1777241782 | 18.89° C | 62% | 1021.1 hPa | 0 mm | - | 210 W/m² | - |
| 1777241480 | 19.44° C | 60% | 1021.2 hPa | 0 mm | - | 226 W/m² | - |
| 1777241177 | 18.89° C | 64% | 1021.2 hPa | 0 mm | - | 239 W/m² | - |
| 1777240875 | 18.89° C | 61% | 1021.1 hPa | 0 mm | - | 257 W/m² | - |
| 1777240573 | 18.33° C | 64% | 1020.9 hPa | 0 mm | - | 276 W/m² | - |
| 1777240270 | 17.78° C | 66% | 1021.1 hPa | 0 mm | - | 297 W/m² | - |
| 1777239967 | 17.78° C | 66% | 1020.8 hPa | 0 mm | - | 320 W/m² | - |
| 1777239664 | 18.33° C | 61% | 1020.8 hPa | 0 mm | - | 336 W/m² | - |
| 1777239361 | 19.44° C | 55% | 1020.6 hPa | 0 mm | - | 356 W/m² | - |
| 1777239058 | 19.44° C | 52% | 1020.5 hPa | 0 mm | - | 373 W/m² | - |
| 1777238755 | 18.33° C | 56% | 1020.6 hPa | 0 mm | - | 389 W/m² | - |
| 1777238451 | 17.78° C | 56% | 1020.5 hPa | 0 mm | - | 405 W/m² | - |
| 1777238148 | 18.33° C | 58% | 1020.5 hPa | 0 mm | - | 422 W/m² | - |
| 1777237845 | 18.89° C | 55% | 1020.5 hPa | 0 mm | - | 436 W/m² | - |
| 1777237541 | 18.33° C | 55% | 1020.6 hPa | 0 mm | - | 453 W/m² | - |
| 1777237239 | 17.78° C | 57% | 1020.4 hPa | 0 mm | - | 472 W/m² | - |
| 1777236936 | 17.22° C | 58% | 1020.5 hPa | 0 mm | - | 488 W/m² | - |
| 1777236633 | 17.22° C | 61% | 1020.5 hPa | 0 mm | - | 502 W/m² | - |
| 1777236328 | 17.22° C | 62% | 1020.5 hPa | 0 mm | - | 518 W/m² | - |
| 1777236025 | 17.22° C | 64% | 1020.5 hPa | 0 mm | - | 532 W/m² | - |
| 1777235721 | 16.67° C | 63% | 1020.5 hPa | 0 mm | - | 546 W/m² | - |
| 1777235418 | 17.78° C | 61% | 1020.4 hPa | 0 mm | - | 571 W/m² | - |
| 1777235115 | 17.22° C | 61% | 1020.6 hPa | 0 mm | - | 557 W/m² | - |
* Rain latest hour (hover to see other rain measurements)
** Current wind speed in m/s (hover to see current wind gust speed)